Sites:

Météo St-Alphonse, Qc
(Site 2 via Meteotemplate)

Détecteur de foudre Station IQUEBECS58
(Route Marcellin)

CoCoRaHS Canada
Station CAN-QC-5

Météo Basses-Laurentides, Qc

Météo Breakeyville, Qc

Météo Chaudière-Appalaches, Qc

Météo Chicoutimi, Qc

Météo Fredericton, N-B

Météo Haut-Richelieu, Qc

Météo Kamouraska, Qc

Météo Lanaudière, Qc

Météo Matane, Qc

Météo Montréal, Qc

Météo Mt St-Hilaire, Qc

Météo Outaouais, Qc

Météo Rimouski, Qc

Météo Ste-Famille, Qc

Météo St-Hyacinthe, Qc

Météo St-Laurent, Mtl

Météo St-Léonard, Mtl

Météo St-Hubert, Mtl

Météo St-Pascal, Qc

Météo Vaudreuil, Mtl

Météo Alerte Québec

Météo Centre

État des routes
Québec 511

Québec en Alerte

Orage Québec

Québec Vortex
chasseurs de tempêtes

Hydro Météo (info-rivière)

Avalanche Québec

Agrométéo Québec

Bulletin des agriculteurs

Réseau Météo-Québec

Réseau Météo des Provinces Atlantiques

Séismes Canada
l'Est du Canada

Fire Smoke Canada

Canwarn Québec

Climat Québec

Environnement Canada

MétéoMédia

METEOTEMPLATE

Leuven Template

Municipalité St-Alphonse

LET St-Alphonse

Domaine des Chutes du Ruisseau Creux

RÉGîM



Observations METAR régionales

   
CYBC - BAIE-COMEAU
Mise à jour: 23-05-2018 20:00
Dégagé  
Dégagé  
   Vent: variable 3.7 km/h
Vent: variable 3.7 km/h
Température: 4°C
Point de rosée: -4°C
Humidité relative: 56%
Pression barométrique: 1015.9 kPa
Nuages: Dégagé
visibilité: 14.5 km
Détails des nuages: Dégagé
CYBC 240000Z AUTO VRB02KT 9SM CLR 04/M04 A3000 RMK SLP162
CYGP - GASPE
Mise à jour: 23-05-2018 20:00
Dégagé  
Dégagé  
   Vent: NNO 7.4 km/h
Vent: NNO 7.4 km/h
Température: 2°C
Facteur éolien: 0°C
Point de rosée: -5°C
Humidité relative: 60%
Pression barométrique: 1014.9 kPa
Nuages: Dégagé
visibilité: 24.1 km
Détails des nuages: Dégagé
CYGP 240000Z 33004KT 15SM SKC 02/M05 A2997 RMK SLP151
CYYY - MATAPEDIA
Mise à jour: 23-05-2018 20:00
Quelques nuages  
Quelques nuages  
   Vent: NE 5.6 km/h
Vent: NE 5.6 km/h
Température: 4°C
Facteur éolien: 3°C
Point de rosée: -1°C
Humidité relative: 70%
Pression barométrique: 1015.9 kPa
Nuages: Quelques nuages
visibilité: 48.3 km
Détails des nuages: Quelques nuages 22000 ft
CYYY 240000Z 04003KT 30SM FEW220 04/M01 A3000 RMK CI2 SLP164
CWOC - NEW CARLISLE
Mise à jour: 23-05-2018 19:00
PAS actuel
  
  
   Vent: Ouest 7.4 km/h
Vent: Ouest 7.4 km/h
Température: 4°C
Facteur éolien: 2°C
Point de rosée: 2°C
Humidité relative: 87%
CWOC 232300Z AUTO 26004KT 04/02 RMK AO1 SLP152 T00370020 53011
CWZS - AMQUI
Mise à jour: 24-05-2018 18:00
PAS actuel
  
  
   Vent: Nord 14.8 km/h
Vent: Nord 14.8 km/h
Température: 9°C
Facteur éolien: 7°C
Point de rosée: -8°C
Humidité relative: 29%
CWZS 242200Z AUTO 35008KT 09/M08 RMK AO1 PK WND 35017/2123 SLP145 T00921076 53007
CYBX - BLANC-SABLON
Mise à jour: 23-05-2018 20:00
Généralement nuageux  
Généralement nuageux  
   Vent: ENE 37 km/h
Vent: ENE 37 km/h
Température: 0°C
Facteur éolien: -7°C
Point de rosée: -3°C
Humidité relative: 80%
Pression barométrique: 1015.2 kPa
Nuages: Généralement nuageux
visibilité: 24.1 km
Détails des nuages: Quelques nuages 3000 ft,
Généralement nuageux 16000 ft
CYBX 240000Z 07020KT 15SM FEW030 BKN160 M00/M03 A2998 RMK SC2AC5 SLP156
CYAD - BAIE-JAMES
Mise à jour: 30-10-2015 16:00
PAS actuel
Light Showers, Neige, Nuageux  
Light Showers, Neige, Nuageux  
   Vent: NO 20.4 km/h<br />Rafale à 20.4 km/h
Vent: NO 20.4 km/h
Rafale à 20.4 km/h
Température: -2°C
Facteur éolien: -8°C
Point de rosée: -4°C
Humidité relative: 86%
Pression barométrique: 1005.1 kPa
Nuages: Nuageux
visibilité: 9.7 km
Détails des nuages: Nuageux 1200 ft
CYAD 302000Z 31011G17KT 6SM -SHSN OVC012 M02/M04 A2968 RMK SC7 LAST OBS/NEXT 021200 UTC SLP066
CYMT - CHIBOUGAMAU
Mise à jour: 23-05-2018 20:00
Généralement nuageux  
Généralement nuageux  
   Vent: ONO 14.8 km/h
Vent: ONO 14.8 km/h
Température: 9°C
Facteur éolien: 7°C
Point de rosée: -6°C
Humidité relative: 34%
Pression barométrique: 1016.9 kPa
Nuages: Généralement nuageux
visibilité: 14.5 km
Détails des nuages: Généralement nuageux 10000 ft
CYMT 240000Z AUTO 30008KT 9SM BKN100 09/M06 A3003 RMK SLP184
CYGR - ILES-DE-LA-MADELEINE
Mise à jour: 23-05-2018 20:00
Pluie faible, Neige, Brouillard, Nuageux  
Pluie faible, Neige, Brouillard, Nuageux  
   Vent: Nord 33.3 km/h
Vent: Nord 33.3 km/h
Température: 1°C
Facteur éolien: -6°C
Point de rosée: 1°C
Humidité relative: 100%
Pression barométrique: 1011.9 kPa
Nuages: Nuageux
visibilité: 8 km
Détails des nuages: Nuageux 500 ft
CYGR 240000Z 01018KT 5SM -RASN BR OVC005 01/01 A2988 RMK SF8 SLP120
CWBY - PORT-MENIER
Mise à jour: 23-05-2018 20:00
  
  
   Vent: ONO 5.6 km/h
Vent: ONO 5.6 km/h
Température: 2°C
Facteur éolien: 1°C
Point de rosée: -3°C
Humidité relative: 70%
CWBY 240000Z AUTO 30003KT 02/M03 RMK AO1 SLP153 T00201028 53013
CYZV - SEPT-ILES
Mise à jour: 23-05-2018 20:00
Quelques nuages  
Quelques nuages  
   Vent: variable 3.7 km/h
Vent: variable 3.7 km/h
Température: 3°C
Point de rosée: -4°C
Humidité relative: 60%
Pression barométrique: 1015.6 kPa
Nuages: Quelques nuages
visibilité: 48.3 km
Détails des nuages: Quelques nuages 6000 ft
CYZV 240000Z VRB02KT 30SM FEW060 03/M04 A2999 RMK SC1 SC TR SLP161
 

Script original développé par  Saratoga-weather.org Adapté pour le modèle par  Weerstation Leuven

Les données sont envoyées via ces sites météo:

WeatherCloud

Weather Underground

Canadian Atlantic Weather Network

AWEKAS

Citizen Weather Observer Program (CWOP)

HAMweather, WeatherForYou, PWS Weather